sensor_id;sensor_type;location;lat;lon;timestamp;P1;durP1;ratioP1;P2;durP2;ratioP2
11791;SDS011;5953;52.372;9.918;2023-02-22T00:00:43;30.73;;;16.03;;
11791;SDS011;5953;52.372;9.918;2023-02-22T00:03:15;29.60;;;17.03;;
11791;SDS011;5953;52.372;9.918;2023-02-22T00:05:44;30.07;;;17.10;;
11791;SDS011;5953;52.372;9.918;2023-02-22T00:08:13;30.50;;;17.40;;
11791;SDS011;5953;52.372;9.918;2023-02-22T00:10:41;30.27;;;17.23;;
11791;SDS011;5953;52.372;9.918;2023-02-22T00:13:10;28.53;;;15.47;;
11791;SDS011;5953;52.372;9.918;2023-02-22T00:15:41;27.73;;;14.50;;
11791;SDS011;5953;52.372;9.918;2023-02-22T00:18:10;28.97;;;15.80;;
11791;SDS011;5953;52.372;9.918;2023-02-22T00:20:39;30.50;;;16.03;;
11791;SDS011;5953;52.372;9.918;2023-02-22T00:23:08;29.90;;;15.63;;
11791;SDS011;5953;52.372;9.918;2023-02-22T00:25:44;27.23;;;15.30;;
11791;SDS011;5953;52.372;9.918;2023-02-22T00:28:12;32.33;;;17.33;;
11791;SDS011;5953;52.372;9.918;2023-02-22T00:30:43;33.07;;;16.87;;
11791;SDS011;5953;52.372;9.918;2023-02-22T00:33:13;34.47;;;16.07;;
11791;SDS011;5953;52.372;9.918;2023-02-22T00:35:42;27.90;;;16.03;;
11791;SDS011;5953;52.372;9.918;2023-02-22T00:38:11;32.13;;;16.67;;
11791;SDS011;5953;52.372;9.918;2023-02-22T00:40:40;29.30;;;17.13;;
11791;SDS011;5953;52.372;9.918;2023-02-22T00:43:07;27.87;;;17.27;;
11791;SDS011;5953;52.372;9.918;2023-02-22T00:45:36;29.33;;;15.80;;
11791;SDS011;5953;52.372;9.918;2023-02-22T00:48:05;29.67;;;15.60;;
11791;SDS011;5953;52.372;9.918;2023-02-22T00:50:34;31.47;;;16.00;;
11791;SDS011;5953;52.372;9.918;2023-02-22T00:53:03;27.30;;;15.47;;
11791;SDS011;5953;52.372;9.918;2023-02-22T00:55:33;29.97;;;17.03;;
11791;SDS011;5953;52.372;9.918;2023-02-22T00:58:02;28.63;;;15.37;;
11791;SDS011;5953;52.372;9.918;2023-02-22T01:00:32;29.60;;;16.00;;
11791;SDS011;5953;52.372;9.918;2023-02-22T01:03:01;31.00;;;16.33;;
11791;SDS011;5953;52.372;9.918;2023-02-22T01:05:31;30.93;;;16.13;;
11791;SDS011;5953;52.372;9.918;2023-02-22T01:08:00;30.27;;;15.80;;
11791;SDS011;5953;52.372;9.918;2023-02-22T01:10:29;29.87;;;16.20;;
11791;SDS011;5953;52.372;9.918;2023-02-22T01:12:58;28.00;;;16.30;;
11791;SDS011;5953;52.372;9.918;2023-02-22T01:15:27;28.37;;;15.83;;
11791;SDS011;5953;52.372;9.918;2023-02-22T01:17:56;27.60;;;15.03;;
11791;SDS011;5953;52.372;9.918;2023-02-22T01:20:25;26.93;;;14.37;;
11791;SDS011;5953;52.372;9.918;2023-02-22T01:22:57;32.07;;;16.73;;
11791;SDS011;5953;52.372;9.918;2023-02-22T01:25:26;28.73;;;15.33;;
11791;SDS011;5953;52.372;9.918;2023-02-22T01:27:55;28.17;;;16.33;;
11791;SDS011;5953;52.372;9.918;2023-02-22T01:30:25;30.97;;;15.30;;
11791;SDS011;5953;52.372;9.918;2023-02-22T01:32:54;30.63;;;16.63;;
11791;SDS011;5953;52.372;9.918;2023-02-22T01:35:24;30.27;;;15.80;;
11791;SDS011;5953;52.372;9.918;2023-02-22T01:37:53;28.57;;;15.67;;
11791;SDS011;5953;52.372;9.918;2023-02-22T01:40:26;27.73;;;14.93;;
11791;SDS011;5953;52.372;9.918;2023-02-22T01:42:56;30.20;;;14.87;;
11791;SDS011;5953;52.372;9.918;2023-02-22T01:45:41;26.43;;;14.97;;
11791;SDS011;5953;52.372;9.918;2023-02-22T01:48:13;32.40;;;15.50;;
11791;SDS011;5953;52.372;9.918;2023-02-22T01:50:47;31.53;;;14.37;;
11791;SDS011;5953;52.372;9.918;2023-02-22T01:53:21;30.93;;;15.60;;
11791;SDS011;5953;52.372;9.918;2023-02-22T01:55:52;29.80;;;15.73;;
11791;SDS011;5953;52.372;9.918;2023-02-22T01:58:21;33.83;;;15.73;;
11791;SDS011;5953;52.372;9.918;2023-02-22T02:00:52;28.97;;;16.17;;
11791;SDS011;5953;52.372;9.918;2023-02-22T02:03:21;28.27;;;16.23;;
11791;SDS011;5953;52.372;9.918;2023-02-22T02:05:53;31.70;;;16.13;;
11791;SDS011;5953;52.372;9.918;2023-02-22T02:08:28;29.10;;;15.00;;
11791;SDS011;5953;52.372;9.918;2023-02-22T02:11:05;33.77;;;16.50;;
11791;SDS011;5953;52.372;9.918;2023-02-22T02:13:34;28.33;;;15.93;;
11791;SDS011;5953;52.372;9.918;2023-02-22T02:16:03;28.50;;;15.27;;
11791;SDS011;5953;52.372;9.918;2023-02-22T02:18:31;27.57;;;14.83;;
11791;SDS011;5953;52.372;9.918;2023-02-22T02:21:14;30.73;;;16.60;;
11791;SDS011;5953;52.372;9.918;2023-02-22T02:24:11;28.33;;;15.87;;
11791;SDS011;5953;52.372;9.918;2023-02-22T02:27:01;29.20;;;16.23;;
11791;SDS011;5953;52.372;9.918;2023-02-22T02:32:45;31.07;;;16.73;;
11791;SDS011;5953;52.372;9.918;2023-02-22T02:35:25;26.00;;;14.67;;
11791;SDS011;5953;52.372;9.918;2023-02-22T02:38:06;26.63;;;13.47;;
11791;SDS011;5953;52.372;9.918;2023-02-22T02:40:42;22.03;;;11.07;;
11791;SDS011;5953;52.372;9.918;2023-02-22T02:43:16;21.60;;;11.13;;
11791;SDS011;5953;52.372;9.918;2023-02-22T02:45:53;18.93;;;9.93;;
11791;SDS011;5953;52.372;9.918;2023-02-22T02:48:26;21.60;;;12.47;;
11791;SDS011;5953;52.372;9.918;2023-02-22T02:50:57;18.60;;;10.73;;
11791;SDS011;5953;52.372;9.918;2023-02-22T02:53:29;22.27;;;11.93;;
11791;SDS011;5953;52.372;9.918;2023-02-22T02:56:00;20.67;;;11.93;;
11791;SDS011;5953;52.372;9.918;2023-02-22T02:58:28;20.90;;;11.90;;
11791;SDS011;5953;52.372;9.918;2023-02-22T03:00:57;24.77;;;12.53;;
11791;SDS011;5953;52.372;9.918;2023-02-22T03:03:38;23.67;;;12.60;;
11791;SDS011;5953;52.372;9.918;2023-02-22T03:06:20;22.03;;;10.77;;
11791;SDS011;5953;52.372;9.918;2023-02-22T03:09:03;23.27;;;11.73;;
11791;SDS011;5953;52.372;9.918;2023-02-22T03:11:40;26.10;;;12.30;;
11791;SDS011;5953;52.372;9.918;2023-02-22T03:14:19;23.80;;;12.53;;
11791;SDS011;5953;52.372;9.918;2023-02-22T03:16:51;24.07;;;12.60;;
11791;SDS011;5953;52.372;9.918;2023-02-22T03:19:26;21.40;;;11.90;;
11791;SDS011;5953;52.372;9.918;2023-02-22T03:22:01;20.13;;;10.43;;
11791;SDS011;5953;52.372;9.918;2023-02-22T03:24:36;16.13;;;10.53;;
11791;SDS011;5953;52.372;9.918;2023-02-22T03:27:10;18.43;;;9.87;;
11791;SDS011;5953;52.372;9.918;2023-02-22T03:29:41;19.60;;;10.63;;
11791;SDS011;5953;52.372;9.918;2023-02-22T03:32:12;20.53;;;10.57;;
11791;SDS011;5953;52.372;9.918;2023-02-22T03:34:44;19.13;;;11.23;;
11791;SDS011;5953;52.372;9.918;2023-02-22T03:37:18;21.57;;;11.40;;
11791;SDS011;5953;52.372;9.918;2023-02-22T03:39:50;17.40;;;9.97;;
11791;SDS011;5953;52.372;9.918;2023-02-22T03:42:21;17.30;;;9.53;;
11791;SDS011;5953;52.372;9.918;2023-02-22T03:44:52;16.27;;;9.10;;
11791;SDS011;5953;52.372;9.918;2023-02-22T03:47:26;18.70;;;8.03;;
11791;SDS011;5953;52.372;9.918;2023-02-22T03:49:59;12.60;;;7.63;;
11791;SDS011;5953;52.372;9.918;2023-02-22T03:52:32;13.83;;;5.60;;
11791;SDS011;5953;52.372;9.918;2023-02-22T03:55:02;9.67;;;6.17;;
11791;SDS011;5953;52.372;9.918;2023-02-22T03:57:36;15.67;;;7.80;;
11791;SDS011;5953;52.372;9.918;2023-02-22T04:00:08;9.93;;;6.33;;
11791;SDS011;5953;52.372;9.918;2023-02-22T04:02:39;17.57;;;9.10;;
11791;SDS011;5953;52.372;9.918;2023-02-22T04:05:09;15.07;;;8.40;;
11791;SDS011;5953;52.372;9.918;2023-02-22T04:07:36;16.10;;;8.50;;
11791;SDS011;5953;52.372;9.918;2023-02-22T04:10:05;16.20;;;8.53;;
11791;SDS011;5953;52.372;9.918;2023-02-22T04:12:33;18.77;;;10.13;;
11791;SDS011;5953;52.372;9.918;2023-02-22T04:15:02;20.83;;;9.73;;
11791;SDS011;5953;52.372;9.918;2023-02-22T04:17:31;17.97;;;10.27;;
11791;SDS011;5953;52.372;9.918;2023-02-22T04:19:59;18.50;;;9.80;;
11791;SDS011;5953;52.372;9.918;2023-02-22T04:22:28;19.00;;;9.33;;
11791;SDS011;5953;52.372;9.918;2023-02-22T04:24:56;20.50;;;10.63;;
11791;SDS011;5953;52.372;9.918;2023-02-22T04:27:24;22.13;;;10.93;;
11791;SDS011;5953;52.372;9.918;2023-02-22T04:29:52;21.77;;;11.73;;
11791;SDS011;5953;52.372;9.918;2023-02-22T04:32:20;21.27;;;9.97;;
11791;SDS011;5953;52.372;9.918;2023-02-22T04:34:48;20.60;;;9.90;;
11791;SDS011;5953;52.372;9.918;2023-02-22T04:37:16;21.53;;;10.33;;
11791;SDS011;5953;52.372;9.918;2023-02-22T04:39:45;15.50;;;9.40;;
11791;SDS011;5953;52.372;9.918;2023-02-22T04:42:13;18.00;;;9.10;;
11791;SDS011;5953;52.372;9.918;2023-02-22T04:44:41;19.97;;;9.47;;
11791;SDS011;5953;52.372;9.918;2023-02-22T04:47:08;20.00;;;9.63;;
11791;SDS011;5953;52.372;9.918;2023-02-22T04:49:36;19.43;;;10.37;;
11791;SDS011;5953;52.372;9.918;2023-02-22T04:52:04;18.00;;;9.40;;
11791;SDS011;5953;52.372;9.918;2023-02-22T04:54:32;19.83;;;9.90;;
11791;SDS011;5953;52.372;9.918;2023-02-22T04:57:01;19.00;;;10.40;;
11791;SDS011;5953;52.372;9.918;2023-02-22T04:59:29;19.90;;;10.27;;
11791;SDS011;5953;52.372;9.918;2023-02-22T05:01:58;19.47;;;10.53;;
11791;SDS011;5953;52.372;9.918;2023-02-22T05:04:26;20.30;;;10.30;;
11791;SDS011;5953;52.372;9.918;2023-02-22T05:06:55;19.90;;;10.13;;
11791;SDS011;5953;52.372;9.918;2023-02-22T05:09:22;24.50;;;11.10;;
11791;SDS011;5953;52.372;9.918;2023-02-22T05:11:50;20.67;;;11.20;;
11791;SDS011;5953;52.372;9.918;2023-02-22T05:14:20;19.17;;;10.07;;
11791;SDS011;5953;52.372;9.918;2023-02-22T05:16:52;24.07;;;11.30;;
11791;SDS011;5953;52.372;9.918;2023-02-22T05:19:21;22.00;;;11.67;;
11791;SDS011;5953;52.372;9.918;2023-02-22T05:21:49;28.37;;;13.50;;
11791;SDS011;5953;52.372;9.918;2023-02-22T05:24:17;24.30;;;11.60;;
11791;SDS011;5953;52.372;9.918;2023-02-22T05:26:45;24.63;;;11.83;;
11791;SDS011;5953;52.372;9.918;2023-02-22T05:29:13;23.17;;;11.90;;
11791;SDS011;5953;52.372;9.918;2023-02-22T05:31:42;20.87;;;11.47;;
11791;SDS011;5953;52.372;9.918;2023-02-22T05:34:10;24.47;;;11.27;;
11791;SDS011;5953;52.372;9.918;2023-02-22T05:36:39;26.43;;;11.50;;
11791;SDS011;5953;52.372;9.918;2023-02-22T05:39:07;24.83;;;11.40;;
11791;SDS011;5953;52.372;9.918;2023-02-22T05:41:35;22.83;;;11.67;;
11791;SDS011;5953;52.372;9.918;2023-02-22T05:44:03;23.40;;;12.37;;
11791;SDS011;5953;52.372;9.918;2023-02-22T05:46:31;23.70;;;13.30;;
11791;SDS011;5953;52.372;9.918;2023-02-22T05:49:01;23.17;;;11.33;;
11791;SDS011;5953;52.372;9.918;2023-02-22T05:51:29;23.27;;;11.93;;
11791;SDS011;5953;52.372;9.918;2023-02-22T05:53:58;23.53;;;11.83;;
11791;SDS011;5953;52.372;9.918;2023-02-22T05:56:28;24.50;;;12.17;;
11791;SDS011;5953;52.372;9.918;2023-02-22T05:58:57;23.03;;;12.27;;
11791;SDS011;5953;52.372;9.918;2023-02-22T06:01:25;29.07;;;12.67;;
11791;SDS011;5953;52.372;9.918;2023-02-22T06:03:53;30.30;;;13.10;;
11791;SDS011;5953;52.372;9.918;2023-02-22T06:06:23;24.03;;;12.43;;
11791;SDS011;5953;52.372;9.918;2023-02-22T06:08:51;26.27;;;13.37;;
11791;SDS011;5953;52.372;9.918;2023-02-22T06:11:19;29.00;;;12.93;;
11791;SDS011;5953;52.372;9.918;2023-02-22T06:13:53;28.13;;;13.20;;
11791;SDS011;5953;52.372;9.918;2023-02-22T06:16:21;23.30;;;12.80;;
11791;SDS011;5953;52.372;9.918;2023-02-22T06:18:49;22.30;;;12.13;;
11791;SDS011;5953;52.372;9.918;2023-02-22T06:21:17;26.80;;;12.87;;
11791;SDS011;5953;52.372;9.918;2023-02-22T06:23:46;28.57;;;12.80;;
11791;SDS011;5953;52.372;9.918;2023-02-22T06:26:15;24.83;;;11.87;;
11791;SDS011;5953;52.372;9.918;2023-02-22T06:28:43;26.37;;;12.97;;
11791;SDS011;5953;52.372;9.918;2023-02-22T06:31:12;25.43;;;11.77;;
11791;SDS011;5953;52.372;9.918;2023-02-22T06:33:41;24.93;;;12.43;;
11791;SDS011;5953;52.372;9.918;2023-02-22T06:36:09;21.87;;;9.67;;
11791;SDS011;5953;52.372;9.918;2023-02-22T06:38:38;21.40;;;11.07;;
11791;SDS011;5953;52.372;9.918;2023-02-22T06:41:12;23.07;;;10.47;;
11791;SDS011;5953;52.372;9.918;2023-02-22T06:43:41;21.43;;;11.00;;
11791;SDS011;5953;52.372;9.918;2023-02-22T06:46:10;26.13;;;10.07;;
11791;SDS011;5953;52.372;9.918;2023-02-22T06:48:38;16.23;;;9.90;;
11791;SDS011;5953;52.372;9.918;2023-02-22T06:51:06;21.77;;;10.67;;
11791;SDS011;5953;52.372;9.918;2023-02-22T06:53:35;21.93;;;10.87;;
11791;SDS011;5953;52.372;9.918;2023-02-22T06:56:03;29.70;;;14.50;;
11791;SDS011;5953;52.372;9.918;2023-02-22T06:58:33;32.07;;;17.13;;
11791;SDS011;5953;52.372;9.918;2023-02-22T07:01:01;33.43;;;17.83;;
11791;SDS011;5953;52.372;9.918;2023-02-22T07:03:32;24.47;;;14.60;;
11791;SDS011;5953;52.372;9.918;2023-02-22T07:06:03;32.23;;;16.77;;
11791;SDS011;5953;52.372;9.918;2023-02-22T07:08:36;34.87;;;16.73;;
11791;SDS011;5953;52.372;9.918;2023-02-22T07:11:07;45.97;;;21.70;;
11791;SDS011;5953;52.372;9.918;2023-02-22T07:13:37;37.37;;;18.40;;
11791;SDS011;5953;52.372;9.918;2023-02-22T07:16:06;29.67;;;14.30;;
11791;SDS011;5953;52.372;9.918;2023-02-22T07:18:34;21.60;;;11.17;;
11791;SDS011;5953;52.372;9.918;2023-02-22T07:21:11;23.80;;;10.70;;
11791;SDS011;5953;52.372;9.918;2023-02-22T07:23:40;18.73;;;9.33;;
11791;SDS011;5953;52.372;9.918;2023-02-22T07:26:09;19.23;;;9.60;;
11791;SDS011;5953;52.372;9.918;2023-02-22T07:28:39;19.57;;;9.67;;
11791;SDS011;5953;52.372;9.918;2023-02-22T07:31:08;21.73;;;9.57;;
11791;SDS011;5953;52.372;9.918;2023-02-22T07:33:35;20.53;;;10.20;;
11791;SDS011;5953;52.372;9.918;2023-02-22T07:36:09;22.57;;;9.50;;
11791;SDS011;5953;52.372;9.918;2023-02-22T07:38:39;18.30;;;8.40;;
11791;SDS011;5953;52.372;9.918;2023-02-22T07:41:07;16.63;;;8.37;;
11791;SDS011;5953;52.372;9.918;2023-02-22T07:43:35;17.90;;;9.97;;
11791;SDS011;5953;52.372;9.918;2023-02-22T07:46:04;19.80;;;9.73;;
11791;SDS011;5953;52.372;9.918;2023-02-22T07:48:33;19.90;;;9.00;;
11791;SDS011;5953;52.372;9.918;2023-02-22T07:51:01;16.77;;;8.87;;
11791;SDS011;5953;52.372;9.918;2023-02-22T07:53:30;19.23;;;10.23;;
11791;SDS011;5953;52.372;9.918;2023-02-22T07:56:00;18.17;;;9.23;;
11791;SDS011;5953;52.372;9.918;2023-02-22T07:58:30;19.97;;;10.97;;
11791;SDS011;5953;52.372;9.918;2023-02-22T08:01:00;23.73;;;10.40;;
11791;SDS011;5953;52.372;9.918;2023-02-22T08:03:31;30.53;;;14.30;;
11791;SDS011;5953;52.372;9.918;2023-02-22T08:06:03;35.33;;;17.17;;
11791;SDS011;5953;52.372;9.918;2023-02-22T08:08:33;38.43;;;17.77;;
11791;SDS011;5953;52.372;9.918;2023-02-22T08:11:01;40.13;;;17.50;;
11791;SDS011;5953;52.372;9.918;2023-02-22T08:13:29;30.17;;;16.83;;
11791;SDS011;5953;52.372;9.918;2023-02-22T08:15:57;30.53;;;14.00;;
11791;SDS011;5953;52.372;9.918;2023-02-22T08:18:25;19.97;;;10.37;;
11791;SDS011;5953;52.372;9.918;2023-02-22T08:20:54;24.60;;;10.07;;
11791;SDS011;5953;52.372;9.918;2023-02-22T08:23:24;17.37;;;8.60;;
11791;SDS011;5953;52.372;9.918;2023-02-22T08:25:54;13.13;;;6.87;;
11791;SDS011;5953;52.372;9.918;2023-02-22T08:28:23;19.67;;;9.73;;
11791;SDS011;5953;52.372;9.918;2023-02-22T08:30:51;18.27;;;10.00;;
11791;SDS011;5953;52.372;9.918;2023-02-22T08:33:20;18.70;;;9.97;;
11791;SDS011;5953;52.372;9.918;2023-02-22T08:35:48;22.13;;;8.83;;
11791;SDS011;5953;52.372;9.918;2023-02-22T08:38:19;14.37;;;7.33;;
11791;SDS011;5953;52.372;9.918;2023-02-22T08:40:50;21.33;;;10.47;;
11791;SDS011;5953;52.372;9.918;2023-02-22T08:43:18;16.93;;;10.37;;
11791;SDS011;5953;52.372;9.918;2023-02-22T08:45:47;19.10;;;9.87;;
11791;SDS011;5953;52.372;9.918;2023-02-22T08:48:20;15.60;;;8.60;;
11791;SDS011;5953;52.372;9.918;2023-02-22T08:50:48;15.57;;;9.47;;
11791;SDS011;5953;52.372;9.918;2023-02-22T08:53:16;15.90;;;9.43;;
11791;SDS011;5953;52.372;9.918;2023-02-22T08:55:47;17.07;;;8.43;;
11791;SDS011;5953;52.372;9.918;2023-02-22T08:58:17;14.60;;;7.77;;
11791;SDS011;5953;52.372;9.918;2023-02-22T09:00:45;16.30;;;8.87;;
11791;SDS011;5953;52.372;9.918;2023-02-22T09:03:13;14.87;;;8.07;;
11791;SDS011;5953;52.372;9.918;2023-02-22T09:05:45;13.37;;;8.50;;
11791;SDS011;5953;52.372;9.918;2023-02-22T09:08:16;20.33;;;9.03;;
11791;SDS011;5953;52.372;9.918;2023-02-22T09:10:44;17.13;;;10.10;;
11791;SDS011;5953;52.372;9.918;2023-02-22T09:13:14;15.90;;;8.33;;
11791;SDS011;5953;52.372;9.918;2023-02-22T09:15:42;18.77;;;11.20;;
11791;SDS011;5953;52.372;9.918;2023-02-22T09:18:10;17.87;;;11.33;;
11791;SDS011;5953;52.372;9.918;2023-02-22T09:20:40;18.03;;;12.30;;
11791;SDS011;5953;52.372;9.918;2023-02-22T09:23:08;20.17;;;11.97;;
11791;SDS011;5953;52.372;9.918;2023-02-22T09:25:37;20.13;;;11.27;;
11791;SDS011;5953;52.372;9.918;2023-02-22T09:28:06;19.53;;;11.67;;
11791;SDS011;5953;52.372;9.918;2023-02-22T09:30:35;17.33;;;11.40;;
11791;SDS011;5953;52.372;9.918;2023-02-22T09:33:05;19.33;;;11.60;;
11791;SDS011;5953;52.372;9.918;2023-02-22T09:35:35;19.43;;;12.00;;
11791;SDS011;5953;52.372;9.918;2023-02-22T09:38:08;22.07;;;13.90;;
11791;SDS011;5953;52.372;9.918;2023-02-22T09:40:37;19.97;;;12.93;;
11791;SDS011;5953;52.372;9.918;2023-02-22T09:43:14;20.43;;;13.33;;
11791;SDS011;5953;52.372;9.918;2023-02-22T09:45:56;21.73;;;14.20;;
11791;SDS011;5953;52.372;9.918;2023-02-22T09:48:33;23.17;;;13.80;;
11791;SDS011;5953;52.372;9.918;2023-02-22T09:51:07;21.63;;;13.57;;
11791;SDS011;5953;52.372;9.918;2023-02-22T09:53:44;24.17;;;13.37;;
11791;SDS011;5953;52.372;9.918;2023-02-22T09:56:16;22.47;;;13.63;;
11791;SDS011;5953;52.372;9.918;2023-02-22T09:58:46;17.97;;;12.70;;
11791;SDS011;5953;52.372;9.918;2023-02-22T10:01:21;22.27;;;13.63;;
11791;SDS011;5953;52.372;9.918;2023-02-22T10:03:55;19.90;;;12.97;;
11791;SDS011;5953;52.372;9.918;2023-02-22T10:06:30;19.07;;;12.93;;
11791;SDS011;5953;52.372;9.918;2023-02-22T10:09:00;20.30;;;13.23;;
11791;SDS011;5953;52.372;9.918;2023-02-22T10:11:43;19.97;;;13.60;;
11791;SDS011;5953;52.372;9.918;2023-02-22T10:14:24;21.53;;;13.90;;
11791;SDS011;5953;52.372;9.918;2023-02-22T10:17:12;19.20;;;15.20;;
11791;SDS011;5953;52.372;9.918;2023-02-22T10:19:52;22.23;;;14.90;;
11791;SDS011;5953;52.372;9.918;2023-02-22T10:25:23;19.77;;;13.30;;
11791;SDS011;5953;52.372;9.918;2023-02-22T10:28:01;22.90;;;13.33;;
11791;SDS011;5953;52.372;9.918;2023-02-22T10:30:39;17.97;;;11.83;;
11791;SDS011;5953;52.372;9.918;2023-02-22T10:33:13;22.73;;;13.13;;
11791;SDS011;5953;52.372;9.918;2023-02-22T10:35:45;14.97;;;10.17;;
11791;SDS011;5953;52.372;9.918;2023-02-22T10:38:15;18.93;;;13.20;;
11791;SDS011;5953;52.372;9.918;2023-02-22T10:40:47;17.07;;;10.80;;
11791;SDS011;5953;52.372;9.918;2023-02-22T10:43:16;14.20;;;10.33;;
11791;SDS011;5953;52.372;9.918;2023-02-22T10:45:49;21.33;;;12.37;;
11791;SDS011;5953;52.372;9.918;2023-02-22T10:48:24;18.20;;;13.03;;
11791;SDS011;5953;52.372;9.918;2023-02-22T10:50:57;16.83;;;11.80;;
11791;SDS011;5953;52.372;9.918;2023-02-22T10:53:31;20.23;;;13.30;;
11791;SDS011;5953;52.372;9.918;2023-02-22T10:56:07;19.70;;;13.10;;
11791;SDS011;5953;52.372;9.918;2023-02-22T10:58:45;17.83;;;12.40;;
11791;SDS011;5953;52.372;9.918;2023-02-22T11:01:19;19.63;;;13.93;;
11791;SDS011;5953;52.372;9.918;2023-02-22T11:06:39;19.63;;;12.83;;
11791;SDS011;5953;52.372;9.918;2023-02-22T11:09:19;18.87;;;12.47;;
11791;SDS011;5953;52.372;9.918;2023-02-22T11:11:49;19.33;;;13.03;;
11791;SDS011;5953;52.372;9.918;2023-02-22T11:14:33;21.87;;;14.67;;
11791;SDS011;5953;52.372;9.918;2023-02-22T11:17:05;21.63;;;13.30;;
11791;SDS011;5953;52.372;9.918;2023-02-22T11:19:44;19.87;;;13.07;;
11791;SDS011;5953;52.372;9.918;2023-02-22T11:22:19;18.47;;;11.53;;
11791;SDS011;5953;52.372;9.918;2023-02-22T11:24:53;19.80;;;13.03;;
11791;SDS011;5953;52.372;9.918;2023-02-22T11:27:27;18.67;;;13.83;;
11791;SDS011;5953;52.372;9.918;2023-02-22T11:30:08;18.57;;;12.33;;
11791;SDS011;5953;52.372;9.918;2023-02-22T11:32:46;19.87;;;12.30;;
11791;SDS011;5953;52.372;9.918;2023-02-22T11:35:19;15.90;;;11.40;;
11791;SDS011;5953;52.372;9.918;2023-02-22T11:41:12;16.30;;;11.83;;
11791;SDS011;5953;52.372;9.918;2023-02-22T11:43:43;19.10;;;13.67;;
11791;SDS011;5953;52.372;9.918;2023-02-22T11:46:13;16.87;;;12.73;;
11791;SDS011;5953;52.372;9.918;2023-02-22T11:48:52;14.07;;;10.63;;
11791;SDS011;5953;52.372;9.918;2023-02-22T11:51:36;18.80;;;11.93;;
11791;SDS011;5953;52.372;9.918;2023-02-22T11:54:32;15.90;;;11.87;;
11791;SDS011;5953;52.372;9.918;2023-02-22T11:57:34;16.23;;;11.83;;
11791;SDS011;5953;52.372;9.918;2023-02-22T12:00:40;15.30;;;10.70;;
11791;SDS011;5953;52.372;9.918;2023-02-22T12:06:59;17.93;;;9.30;;
11791;SDS011;5953;52.372;9.918;2023-02-22T12:10:13;14.33;;;9.53;;
11791;SDS011;5953;52.372;9.918;2023-02-22T12:12:56;15.53;;;11.10;;
11791;SDS011;5953;52.372;9.918;2023-02-22T12:15:36;15.57;;;11.37;;
11791;SDS011;5953;52.372;9.918;2023-02-22T12:18:10;15.23;;;9.53;;
11791;SDS011;5953;52.372;9.918;2023-02-22T12:20:45;11.57;;;7.47;;
11791;SDS011;5953;52.372;9.918;2023-02-22T12:23:19;12.13;;;7.60;;
11791;SDS011;5953;52.372;9.918;2023-02-22T12:25:55;12.30;;;8.07;;
11791;SDS011;5953;52.372;9.918;2023-02-22T12:28:27;11.17;;;6.23;;
11791;SDS011;5953;52.372;9.918;2023-02-22T12:31:13;11.93;;;7.83;;
11791;SDS011;5953;52.372;9.918;2023-02-22T12:33:48;14.43;;;7.27;;
11791;SDS011;5953;52.372;9.918;2023-02-22T12:36:24;14.87;;;7.57;;
11791;SDS011;5953;52.372;9.918;2023-02-22T12:39:00;8.93;;;6.47;;
11791;SDS011;5953;52.372;9.918;2023-02-22T12:41:33;12.20;;;7.33;;
11791;SDS011;5953;52.372;9.918;2023-02-22T12:44:07;10.87;;;7.10;;
11791;SDS011;5953;52.372;9.918;2023-02-22T12:46:42;11.93;;;6.47;;
11791;SDS011;5953;52.372;9.918;2023-02-22T12:49:13;11.07;;;7.23;;
11791;SDS011;5953;52.372;9.918;2023-02-22T12:51:48;12.90;;;8.47;;
11791;SDS011;5953;52.372;9.918;2023-02-22T12:54:50;11.20;;;6.27;;
11791;SDS011;5953;52.372;9.918;2023-02-22T12:57:26;13.00;;;7.73;;
11791;SDS011;5953;52.372;9.918;2023-02-22T13:00:03;13.30;;;8.80;;
11791;SDS011;5953;52.372;9.918;2023-02-22T13:02:38;10.30;;;8.10;;
11791;SDS011;5953;52.372;9.918;2023-02-22T13:05:12;12.73;;;7.60;;
11791;SDS011;5953;52.372;9.918;2023-02-22T13:07:47;12.47;;;7.97;;
11791;SDS011;5953;52.372;9.918;2023-02-22T13:13:26;9.77;;;7.37;;
11791;SDS011;5953;52.372;9.918;2023-02-22T13:16:04;15.20;;;7.90;;
11791;SDS011;5953;52.372;9.918;2023-02-22T13:18:42;16.53;;;7.77;;
11791;SDS011;5953;52.372;9.918;2023-02-22T13:21:20;13.57;;;8.47;;
11791;SDS011;5953;52.372;9.918;2023-02-22T13:23:52;11.87;;;8.23;;
11791;SDS011;5953;52.372;9.918;2023-02-22T13:26:33;10.00;;;7.03;;
11791;SDS011;5953;52.372;9.918;2023-02-22T13:29:06;12.47;;;7.93;;
11791;SDS011;5953;52.372;9.918;2023-02-22T13:31:47;9.77;;;7.03;;
11791;SDS011;5953;52.372;9.918;2023-02-22T13:34:32;12.57;;;7.93;;
11791;SDS011;5953;52.372;9.918;2023-02-22T13:37:16;11.17;;;7.80;;
11791;SDS011;5953;52.372;9.918;2023-02-22T13:40:08;12.23;;;7.83;;
11791;SDS011;5953;52.372;9.918;2023-02-22T13:42:52;11.27;;;7.17;;
11791;SDS011;5953;52.372;9.918;2023-02-22T13:45:43;12.73;;;9.37;;
11791;SDS011;5953;52.372;9.918;2023-02-22T13:48:43;13.57;;;8.00;;
11791;SDS011;5953;52.372;9.918;2023-02-22T13:54:17;11.27;;;6.93;;
11791;SDS011;5953;52.372;9.918;2023-02-22T13:56:50;11.43;;;6.87;;
11791;SDS011;5953;52.372;9.918;2023-02-22T13:59:23;12.67;;;8.07;;
11791;SDS011;5953;52.372;9.918;2023-02-22T14:01:53;12.53;;;7.57;;
11791;SDS011;5953;52.372;9.918;2023-02-22T14:10:44;11.87;;;6.90;;
11791;SDS011;5953;52.372;9.918;2023-02-22T14:13:14;9.80;;;6.73;;
11791;SDS011;5953;52.372;9.918;2023-02-22T14:18:59;11.57;;;7.00;;
11791;SDS011;5953;52.372;9.918;2023-02-22T14:21:31;10.80;;;6.47;;
11791;SDS011;5953;52.372;9.918;2023-02-22T14:24:08;8.80;;;6.83;;
11791;SDS011;5953;52.372;9.918;2023-02-22T14:26:39;8.83;;;6.47;;
11791;SDS011;5953;52.372;9.918;2023-02-22T14:29:22;13.03;;;6.63;;
11791;SDS011;5953;52.372;9.918;2023-02-22T14:32:03;9.87;;;6.33;;
11791;SDS011;5953;52.372;9.918;2023-02-22T14:34:40;10.20;;;5.87;;
11791;SDS011;5953;52.372;9.918;2023-02-22T14:37:12;11.43;;;6.57;;
11791;SDS011;5953;52.372;9.918;2023-02-22T14:39:44;8.77;;;6.13;;
11791;SDS011;5953;52.372;9.918;2023-02-22T14:42:17;9.53;;;6.87;;
11791;SDS011;5953;52.372;9.918;2023-02-22T14:44:51;10.70;;;7.07;;
11791;SDS011;5953;52.372;9.918;2023-02-22T14:47:29;10.43;;;6.80;;
11791;SDS011;5953;52.372;9.918;2023-02-22T14:50:06;10.80;;;6.63;;
11791;SDS011;5953;52.372;9.918;2023-02-22T14:52:41;11.10;;;7.27;;
11791;SDS011;5953;52.372;9.918;2023-02-22T14:55:15;10.50;;;7.30;;
11791;SDS011;5953;52.372;9.918;2023-02-22T14:57:52;11.57;;;6.47;;
11791;SDS011;5953;52.372;9.918;2023-02-22T15:00:27;10.13;;;6.73;;
11791;SDS011;5953;52.372;9.918;2023-02-22T15:03:15;10.00;;;6.60;;
11791;SDS011;5953;52.372;9.918;2023-02-22T15:05:45;8.37;;;6.43;;
11791;SDS011;5953;52.372;9.918;2023-02-22T15:08:15;10.17;;;6.57;;
11791;SDS011;5953;52.372;9.918;2023-02-22T15:10:53;11.63;;;7.10;;
11791;SDS011;5953;52.372;9.918;2023-02-22T15:13:22;11.87;;;7.37;;
11791;SDS011;5953;52.372;9.918;2023-02-22T15:15:53;13.47;;;7.83;;
11791;SDS011;5953;52.372;9.918;2023-02-22T15:18:29;9.40;;;6.03;;
11791;SDS011;5953;52.372;9.918;2023-02-22T15:21:02;11.40;;;6.87;;
11791;SDS011;5953;52.372;9.918;2023-02-22T15:23:40;11.00;;;6.30;;
11791;SDS011;5953;52.372;9.918;2023-02-22T15:26:17;11.03;;;7.20;;
11791;SDS011;5953;52.372;9.918;2023-02-22T15:28:47;9.57;;;7.27;;
11791;SDS011;5953;52.372;9.918;2023-02-22T15:31:22;10.27;;;7.17;;
11791;SDS011;5953;52.372;9.918;2023-02-22T15:34:00;12.30;;;7.00;;
11791;SDS011;5953;52.372;9.918;2023-02-22T15:36:52;9.30;;;7.03;;
11791;SDS011;5953;52.372;9.918;2023-02-22T15:39:24;10.70;;;7.20;;
11791;SDS011;5953;52.372;9.918;2023-02-22T15:42:11;10.00;;;6.97;;
11791;SDS011;5953;52.372;9.918;2023-02-22T15:44:49;10.60;;;6.87;;